createdAt,value
2022-08-28T00:00:09.397Z,131.29
2022-08-28T00:01:09.396Z,131.29
2022-08-28T00:02:09.391Z,131.29
2022-08-28T00:03:09.463Z,131.29
2022-08-28T00:04:09.385Z,131.29
2022-08-28T00:05:09.433Z,131.29
2022-08-28T00:06:09.390Z,131.29
2022-08-28T00:07:09.396Z,131.29
2022-08-28T00:08:09.445Z,131.29
2022-08-28T00:09:09.399Z,131.29
2022-08-28T00:10:09.392Z,131.29
2022-08-28T00:11:09.390Z,131.29
2022-08-28T00:12:09.400Z,131.29
2022-08-28T00:13:09.394Z,131.29
2022-08-28T00:14:09.391Z,131.29
2022-08-28T00:15:09.690Z,131.29
2022-08-28T00:16:09.433Z,131.29
2022-08-28T00:17:09.396Z,131.29
2022-08-28T00:18:09.436Z,131.29
2022-08-28T00:19:09.395Z,131.29
2022-08-28T00:20:09.408Z,131.29
2022-08-28T00:21:09.405Z,131.29
2022-08-28T00:22:09.400Z,131.29
2022-08-28T00:23:09.403Z,131.29
2022-08-28T00:24:09.406Z,131.29
2022-08-28T00:25:09.408Z,131.29
2022-08-28T00:26:09.405Z,131.29
2022-08-28T00:27:09.415Z,131.29
2022-08-28T00:28:09.423Z,131.29
2022-08-28T00:29:09.419Z,131.29
2022-08-28T00:30:09.412Z,131.29
2022-08-28T00:31:09.437Z,131.29
2022-08-28T00:32:09.415Z,131.29
2022-08-28T00:33:09.428Z,131.29
2022-08-28T00:34:09.412Z,131.29
2022-08-28T00:35:09.425Z,131.29
2022-08-28T00:36:09.419Z,131.29
2022-08-28T00:37:09.418Z,131.29
2022-08-28T00:38:09.487Z,131.29
2022-08-28T00:39:09.419Z,131.29
2022-08-28T00:40:09.473Z,131.29
2022-08-28T00:41:09.427Z,131.29
2022-08-28T00:42:09.427Z,131.29
2022-08-28T00:43:09.431Z,131.29
2022-08-28T00:44:09.433Z,131.29
2022-08-28T00:45:09.430Z,131.29
2022-08-28T00:46:09.485Z,131.29
2022-08-28T00:47:09.436Z,131.29
2022-08-28T00:48:09.484Z,131.29
2022-08-28T00:49:09.436Z,131.29
2022-08-28T00:50:09.442Z,131.29
2022-08-28T00:51:09.444Z,131.29
2022-08-28T00:52:11.335Z,131.29
2022-08-28T00:53:09.439Z,131.29
2022-08-28T00:54:09.449Z,131.29
2022-08-28T00:55:09.440Z,131.29
2022-08-28T00:56:12.235Z,131.29
2022-08-28T00:57:09.448Z,131.29
2022-08-28T00:58:09.451Z,131.29
2022-08-28T00:59:09.441Z,131.29
2022-08-28T01:00:09.446Z,131.29
2022-08-28T01:01:09.450Z,131.29
2022-08-28T01:02:09.452Z,131.29
2022-08-28T01:03:09.525Z,131.29
2022-08-28T01:04:09.457Z,131.29
2022-08-28T01:05:09.448Z,131.29
2022-08-28T01:06:09.448Z,131.29
2022-08-28T01:07:09.455Z,131.29
2022-08-28T01:08:09.512Z,131.29
2022-08-28T01:09:09.461Z,131.29
2022-08-28T01:10:09.460Z,131.29
2022-08-28T01:11:09.456Z,131.29
2022-08-28T01:12:09.467Z,131.29
2022-08-28T01:13:09.469Z,131.29
2022-08-28T01:14:09.468Z,131.29
2022-08-28T01:15:09.459Z,131.29
2022-08-28T01:16:09.611Z,131.29
2022-08-28T01:17:09.512Z,131.29
2022-08-28T01:18:09.565Z,131.29
2022-08-28T01:19:09.469Z,131.29
2022-08-28T01:20:09.475Z,131.29
2022-08-28T01:21:09.471Z,131.29
2022-08-28T01:22:09.484Z,131.29
2022-08-28T01:23:09.470Z,131.29
2022-08-28T01:24:09.469Z,131.29
2022-08-28T01:25:09.474Z,131.29
2022-08-28T01:26:10.728Z,131.29
2022-08-28T01:27:09.471Z,131.29
2022-08-28T01:28:09.472Z,131.29
2022-08-28T01:29:09.478Z,131.29
2022-08-28T01:30:09.483Z,131.29
2022-08-28T01:31:09.534Z,131.29
2022-08-28T01:32:09.495Z,131.29
2022-08-28T01:33:09.486Z,131.29
2022-08-28T01:34:09.475Z,131.29
2022-08-28T01:35:09.504Z,131.29
2022-08-28T01:36:09.490Z,131.29
2022-08-28T01:37:09.478Z,131.29
2022-08-28T01:38:09.557Z,131.29
2022-08-28T01:39:09.485Z,131.29
2022-08-28T01:40:09.555Z,131.29
2022-08-28T01:41:09.496Z,131.29
2022-08-28T01:42:09.488Z,131.29
2022-08-28T01:43:09.509Z,131.29
2022-08-28T01:44:09.500Z,131.29
2022-08-28T01:45:09.492Z,131.29
2022-08-28T01:46:09.549Z,225.88
2022-08-28T01:47:09.487Z,224.47
2022-08-28T01:48:09.586Z,197.65
2022-08-28T01:49:09.495Z,190.59
2022-08-28T01:50:09.493Z,207.53
2022-08-28T01:51:09.506Z,211.76
2022-08-28T01:52:09.502Z,184.94
2022-08-28T01:53:11.969Z,184.94
2022-08-28T01:54:09.812Z,184.94
2022-08-28T01:55:09.502Z,184.94
2022-08-28T01:56:09.499Z,184.94
2022-08-28T01:57:09.506Z,184.94
2022-08-28T01:58:09.655Z,184.94
2022-08-28T01:59:09.501Z,184.94
2022-08-28T02:00:09.506Z,184.94
2022-08-28T02:01:09.634Z,184.94
2022-08-28T02:02:09.588Z,184.94
2022-08-28T02:03:09.513Z,184.94
2022-08-28T02:04:09.576Z,184.94
2022-08-28T02:05:09.510Z,184.94
2022-08-28T02:06:09.506Z,184.94
2022-08-28T02:07:09.516Z,184.94
2022-08-28T02:08:09.596Z,184.94
2022-08-28T02:09:10.269Z,184.94
2022-08-28T02:10:09.505Z,184.94
2022-08-28T02:11:09.513Z,184.94
2022-08-28T02:12:09.515Z,184.94
2022-08-28T02:13:09.521Z,184.94
2022-08-28T02:14:09.523Z,184.94
2022-08-28T02:15:09.508Z,184.94
2022-08-28T02:16:09.737Z,184.94
2022-08-28T02:17:09.517Z,184.94
2022-08-28T02:18:09.602Z,184.94
2022-08-28T02:19:09.527Z,184.94
2022-08-28T02:20:09.525Z,184.94
2022-08-28T02:21:09.523Z,184.94
2022-08-28T02:22:09.529Z,184.94
2022-08-28T02:23:09.521Z,184.94
2022-08-28T02:24:09.530Z,184.94
2022-08-28T02:25:09.527Z,184.94
2022-08-28T02:26:09.531Z,184.94
2022-08-28T02:27:09.521Z,184.94
2022-08-28T02:28:09.590Z,184.94
2022-08-28T02:29:09.536Z,184.94
2022-08-28T02:30:09.532Z,184.94
2022-08-28T02:31:09.624Z,184.94
2022-08-28T02:32:09.536Z,184.94
2022-08-28T02:33:09.541Z,184.94
2022-08-28T02:34:09.543Z,184.94
2022-08-28T02:35:11.962Z,184.94
2022-08-28T02:36:09.540Z,184.94
2022-08-28T02:37:09.536Z,184.94
2022-08-28T02:38:09.587Z,184.94
2022-08-28T02:39:09.546Z,184.94
2022-08-28T02:40:09.590Z,184.94
2022-08-28T02:41:09.551Z,184.94
2022-08-28T02:42:09.548Z,184.94
2022-08-28T02:43:09.540Z,184.94
2022-08-28T02:44:09.549Z,184.94
2022-08-28T02:45:09.546Z,184.94
2022-08-28T02:46:09.590Z,184.94
2022-08-28T02:47:09.547Z,184.94
2022-08-28T02:48:12.079Z,184.94
2022-08-28T02:49:09.556Z,184.94
2022-08-28T02:50:09.552Z,184.94
2022-08-28T02:51:09.549Z,184.94
2022-08-28T02:52:09.550Z,184.94
2022-08-28T02:53:09.548Z,184.94
2022-08-28T02:54:09.558Z,184.94
2022-08-28T02:55:09.555Z,184.94
2022-08-28T02:56:09.566Z,184.94
2022-08-28T02:57:09.564Z,184.94
2022-08-28T02:58:09.715Z,184.94
2022-08-28T02:59:09.555Z,184.94
2022-08-28T03:00:09.559Z,184.94
2022-08-28T03:01:09.625Z,184.94
2022-08-28T03:02:09.586Z,184.94
2022-08-28T03:03:09.560Z,184.94
2022-08-28T03:04:09.567Z,184.94
2022-08-28T03:05:09.570Z,184.94
2022-08-28T03:06:09.570Z,184.94
2022-08-28T03:07:09.573Z,184.94
2022-08-28T03:08:09.592Z,184.94
2022-08-28T03:09:09.572Z,184.94
2022-08-28T03:10:09.570Z,184.94
2022-08-28T03:11:09.571Z,184.94
2022-08-28T03:12:09.579Z,184.94
2022-08-28T03:13:09.576Z,184.94
2022-08-28T03:14:09.586Z,184.94
2022-08-28T03:15:09.579Z,184.94
2022-08-28T03:16:09.575Z,184.94
2022-08-28T03:17:09.575Z,184.94
2022-08-28T03:18:11.149Z,184.94
2022-08-28T03:19:09.588Z,184.94
2022-08-28T03:20:09.577Z,184.94
2022-08-28T03:21:09.584Z,184.94
2022-08-28T03:22:09.591Z,184.94
2022-08-28T03:23:09.587Z,184.94
2022-08-28T03:24:09.590Z,184.94
2022-08-28T03:25:09.587Z,184.94
2022-08-28T03:26:09.591Z,184.94
2022-08-28T03:27:09.582Z,184.94
2022-08-28T03:28:09.643Z,184.94
2022-08-28T03:29:09.586Z,184.94
2022-08-28T03:30:09.590Z,184.94
2022-08-28T03:31:09.629Z,184.94
2022-08-28T03:32:09.597Z,184.94
2022-08-28T03:33:09.599Z,184.94
2022-08-28T03:34:09.591Z,184.94
2022-08-28T03:35:09.596Z,184.94
2022-08-28T03:36:09.594Z,184.94
2022-08-28T03:37:09.595Z,184.94
2022-08-28T03:38:09.638Z,184.94
2022-08-28T03:39:09.593Z,184.94
2022-08-28T03:40:09.626Z,184.94
2022-08-28T03:41:09.593Z,184.94
2022-08-28T03:42:09.599Z,184.94
2022-08-28T03:43:09.598Z,184.94
2022-08-28T03:44:09.604Z,184.94
2022-08-28T03:45:09.602Z,184.94
2022-08-28T03:46:09.633Z,184.94
2022-08-28T03:47:09.605Z,184.94
2022-08-28T03:48:09.659Z,184.94
2022-08-28T03:49:09.602Z,184.94
2022-08-28T03:50:09.939Z,184.94
2022-08-28T03:51:09.601Z,184.94
2022-08-28T03:52:09.607Z,184.94
2022-08-28T03:53:09.608Z,184.94
2022-08-28T03:54:09.605Z,184.94
2022-08-28T03:55:09.609Z,184.94
2022-08-28T03:56:09.609Z,184.94
2022-08-28T03:57:09.606Z,184.94
2022-08-28T03:58:09.677Z,184.94
2022-08-28T03:59:09.615Z,184.94
2022-08-28T04:00:09.625Z,184.94
2022-08-28T04:01:09.678Z,184.94
2022-08-28T04:02:09.617Z,184.94
2022-08-28T04:03:09.681Z,184.94
2022-08-28T04:04:09.615Z,184.94
2022-08-28T04:05:09.617Z,184.94
2022-08-28T04:06:09.612Z,184.94
2022-08-28T04:07:09.619Z,184.94
2022-08-28T04:08:09.656Z,184.94
2022-08-28T04:09:09.629Z,184.94
2022-08-28T04:10:09.624Z,184.94
2022-08-28T04:11:09.625Z,184.94
2022-08-28T04:12:09.618Z,184.94
2022-08-28T04:13:09.612Z,184.94
2022-08-28T04:14:09.615Z,184.94
2022-08-28T04:15:09.626Z,184.94
2022-08-28T04:16:09.671Z,184.94
2022-08-28T04:17:09.639Z,184.94
2022-08-28T04:18:09.704Z,184.94
2022-08-28T04:19:09.626Z,184.94
2022-08-28T04:20:09.625Z,184.94
2022-08-28T04:21:09.622Z,184.94
2022-08-28T04:22:09.612Z,184.94
2022-08-28T04:23:09.623Z,184.94
2022-08-28T04:24:09.978Z,184.94
2022-08-28T04:25:09.626Z,184.94
2022-08-28T04:26:09.616Z,184.94
2022-08-28T04:27:09.624Z,184.94
2022-08-28T04:28:09.680Z,184.94
2022-08-28T04:29:09.627Z,184.94
2022-08-28T04:30:09.764Z,184.94
2022-08-28T04:31:09.645Z,184.94
2022-08-28T04:32:09.700Z,184.94
2022-08-28T04:33:09.633Z,184.94
2022-08-28T04:34:09.630Z,184.94
2022-08-28T04:35:09.635Z,184.94
2022-08-28T04:36:09.633Z,184.94
2022-08-28T04:37:09.626Z,184.94
2022-08-28T04:38:09.635Z,184.94
2022-08-28T04:39:09.628Z,184.94
2022-08-28T04:40:09.663Z,184.94
2022-08-28T04:41:09.627Z,184.94
2022-08-28T04:42:09.630Z,184.94
2022-08-28T04:43:09.635Z,184.94
2022-08-28T04:44:09.628Z,184.94
2022-08-28T04:45:09.626Z,184.94
2022-08-28T04:46:09.735Z,184.94
2022-08-28T04:47:09.630Z,184.94
2022-08-28T04:48:10.603Z,184.94
2022-08-28T04:49:09.625Z,184.94
2022-08-28T04:50:09.629Z,184.94
2022-08-28T04:51:09.634Z,184.94
2022-08-28T04:52:09.636Z,184.94
2022-08-28T04:53:09.625Z,184.94
2022-08-28T04:54:09.632Z,184.94
2022-08-28T04:55:09.632Z,184.94
2022-08-28T04:56:09.638Z,184.94
2022-08-28T04:57:09.647Z,184.94
2022-08-28T04:58:09.635Z,184.94
2022-08-28T04:59:09.645Z,184.94
2022-08-28T05:00:09.644Z,184.94
2022-08-28T05:01:09.703Z,184.94
2022-08-28T05:02:09.687Z,184.94
2022-08-28T05:03:09.633Z,184.94
2022-08-28T05:04:09.642Z,184.94
2022-08-28T05:05:09.643Z,184.94
2022-08-28T05:06:09.645Z,184.94
2022-08-28T05:07:09.650Z,184.94
2022-08-28T05:08:09.698Z,184.94
2022-08-28T05:09:09.650Z,184.94
2022-08-28T05:10:09.642Z,184.94
2022-08-28T05:11:09.642Z,184.94
2022-08-28T05:12:09.645Z,184.94
2022-08-28T05:13:09.642Z,184.94
2022-08-28T05:14:12.706Z,184.94
2022-08-28T05:15:09.650Z,184.94
2022-08-28T05:16:09.687Z,184.94
2022-08-28T05:17:09.651Z,184.94
2022-08-28T05:18:09.646Z,184.94
2022-08-28T05:19:09.648Z,184.94
2022-08-28T05:20:09.654Z,184.94
2022-08-28T05:21:12.682Z,184.94
2022-08-28T05:22:09.653Z,184.94
2022-08-28T05:23:09.656Z,184.94
2022-08-28T05:24:09.648Z,184.94
2022-08-28T05:25:09.656Z,184.94
2022-08-28T05:26:09.658Z,184.94
2022-08-28T05:27:09.670Z,184.94
2022-08-28T05:28:09.873Z,184.94
2022-08-28T05:29:09.659Z,184.94
2022-08-28T05:30:09.665Z,184.94
2022-08-28T05:31:09.696Z,184.94
2022-08-28T05:32:09.667Z,184.94
2022-08-28T05:33:09.668Z,184.94
2022-08-28T05:34:09.667Z,184.94
2022-08-28T05:35:09.672Z,184.94
2022-08-28T05:36:09.666Z,184.94
2022-08-28T05:37:09.671Z,184.94
2022-08-28T05:38:09.723Z,184.94
2022-08-28T05:39:09.675Z,184.94
2022-08-28T05:40:09.744Z,184.94
2022-08-28T05:41:09.682Z,184.94
2022-08-28T05:42:09.668Z,184.94
2022-08-28T05:43:09.670Z,184.94
2022-08-28T05:44:09.675Z,184.94
2022-08-28T05:45:09.682Z,184.94
2022-08-28T05:46:09.689Z,184.94
2022-08-28T05:47:09.669Z,184.94
2022-08-28T05:48:09.719Z,184.94
2022-08-28T05:49:10.335Z,184.94
2022-08-28T05:50:09.680Z,184.94
2022-08-28T05:51:09.684Z,184.94
2022-08-28T05:52:09.675Z,184.94
2022-08-28T05:53:09.671Z,184.94
2022-08-28T05:54:09.679Z,184.94
2022-08-28T05:55:09.685Z,184.94
2022-08-28T05:56:09.685Z,184.94
2022-08-28T05:57:09.678Z,184.94
2022-08-28T05:58:09.686Z,184.94
2022-08-28T05:59:09.685Z,184.94
2022-08-28T06:00:09.687Z,184.94
2022-08-28T06:01:09.716Z,184.94
2022-08-28T06:02:09.715Z,184.94
2022-08-28T06:03:09.687Z,184.94
2022-08-28T06:04:09.749Z,184.94
2022-08-28T06:05:12.673Z,184.94
2022-08-28T06:06:09.692Z,184.94
2022-08-28T06:07:09.684Z,184.94
2022-08-28T06:08:09.682Z,184.94
2022-08-28T06:09:09.689Z,184.94
2022-08-28T06:10:10.431Z,184.94
2022-08-28T06:11:09.691Z,184.94
2022-08-28T06:12:09.690Z,184.94
2022-08-28T06:13:09.692Z,184.94
2022-08-28T06:14:09.695Z,184.94
2022-08-28T06:15:09.691Z,184.94
2022-08-28T06:16:09.781Z,184.94
2022-08-28T06:17:09.693Z,184.94
2022-08-28T06:18:09.695Z,184.94
2022-08-28T06:19:09.705Z,184.94
2022-08-28T06:20:09.699Z,184.94
2022-08-28T06:21:09.692Z,184.94
2022-08-28T06:22:09.698Z,184.94
2022-08-28T06:23:09.701Z,184.94
2022-08-28T06:24:09.706Z,184.94
2022-08-28T06:25:09.703Z,184.94
2022-08-28T06:26:09.706Z,184.94
2022-08-28T06:27:09.703Z,184.94
2022-08-28T06:28:09.737Z,184.94
2022-08-28T06:29:09.705Z,184.94
2022-08-28T06:30:09.704Z,184.94
2022-08-28T06:31:23.095Z,184.94
2022-08-28T06:32:09.779Z,184.94
2022-08-28T06:33:09.716Z,184.94
2022-08-28T06:34:09.718Z,184.94
2022-08-28T06:35:09.708Z,184.94
2022-08-28T06:36:09.706Z,184.94
2022-08-28T06:37:09.706Z,184.94
2022-08-28T06:38:09.770Z,184.94
2022-08-28T06:39:09.716Z,184.94
2022-08-28T06:40:09.753Z,184.94
2022-08-28T06:41:09.707Z,184.94
2022-08-28T06:42:09.723Z,184.94
2022-08-28T06:43:09.733Z,184.94
2022-08-28T06:44:09.719Z,184.94
2022-08-28T06:45:09.716Z,184.94
2022-08-28T06:46:09.865Z,184.94
2022-08-28T06:47:09.716Z,184.94
2022-08-28T06:48:09.714Z,184.94
2022-08-28T06:49:09.726Z,184.94
2022-08-28T06:50:09.718Z,184.94
2022-08-28T06:51:09.719Z,184.94
2022-08-28T06:52:09.725Z,184.94
2022-08-28T06:53:09.723Z,184.94
2022-08-28T06:54:09.724Z,184.94
2022-08-28T06:55:09.720Z,184.94
2022-08-28T06:56:09.727Z,184.94
2022-08-28T06:57:09.730Z,184.94
2022-08-28T06:58:09.725Z,184.94
2022-08-28T06:59:09.725Z,184.94
2022-08-28T07:00:09.733Z,184.94
2022-08-28T07:01:09.742Z,184.94
2022-08-28T07:02:09.824Z,184.94
2022-08-28T07:03:09.728Z,184.94
2022-08-28T07:04:09.732Z,184.94
2022-08-28T07:05:09.738Z,184.94
2022-08-28T07:06:09.743Z,184.94
2022-08-28T07:07:09.738Z,184.94
2022-08-28T07:08:09.730Z,184.94
2022-08-28T07:09:09.731Z,184.94
2022-08-28T07:10:09.740Z,184.94
2022-08-28T07:11:09.736Z,184.94
2022-08-28T07:12:09.740Z,184.94
2022-08-28T07:13:09.743Z,184.94
2022-08-28T07:14:09.742Z,184.94
2022-08-28T07:15:09.744Z,184.94
2022-08-28T07:16:09.822Z,184.94
2022-08-28T07:17:09.742Z,184.94
2022-08-28T07:18:09.744Z,184.94
2022-08-28T07:19:09.966Z,184.94
2022-08-28T07:20:09.748Z,184.94
2022-08-28T07:21:12.420Z,184.94
2022-08-28T07:22:09.742Z,184.94
2022-08-28T07:23:09.741Z,184.94
2022-08-28T07:24:09.742Z,184.94
2022-08-28T07:25:09.745Z,184.94
2022-08-28T07:26:09.747Z,184.94
2022-08-28T07:27:09.738Z,184.94
2022-08-28T07:28:09.754Z,184.94
2022-08-28T07:29:11.395Z,184.94
2022-08-28T07:30:09.751Z,184.94
2022-08-28T07:31:09.874Z,184.94
2022-08-28T07:32:09.755Z,184.94
2022-08-28T07:33:09.749Z,184.94
2022-08-28T07:34:09.756Z,184.94
2022-08-28T07:35:09.742Z,184.94
2022-08-28T07:36:12.316Z,184.94
2022-08-28T07:37:13.385Z,184.94
2022-08-28T07:38:09.746Z,184.94
2022-08-28T07:39:09.749Z,184.94
2022-08-28T07:40:09.789Z,184.94
2022-08-28T07:41:09.750Z,184.94
2022-08-28T07:42:09.760Z,184.94
2022-08-28T07:43:09.753Z,184.94
2022-08-28T07:44:09.755Z,184.94
2022-08-28T07:45:09.751Z,184.94
2022-08-28T07:46:09.815Z,184.94
2022-08-28T07:47:09.748Z,184.94
2022-08-28T07:48:11.594Z,184.94
2022-08-28T07:49:09.750Z,184.94
2022-08-28T07:50:09.745Z,184.94
2022-08-28T07:51:09.745Z,184.94
2022-08-28T07:52:09.758Z,184.94
2022-08-28T07:53:09.753Z,184.94
2022-08-28T07:54:12.995Z,184.94
2022-08-28T07:55:09.747Z,184.94
2022-08-28T07:56:09.755Z,184.94
2022-08-28T07:57:09.749Z,184.94
2022-08-28T07:58:09.799Z,184.94
2022-08-28T07:59:09.748Z,184.94
2022-08-28T08:00:09.750Z,184.94
2022-08-28T08:01:09.774Z,184.94
2022-08-28T08:02:09.750Z,184.94
2022-08-28T08:03:09.774Z,184.94
2022-08-28T08:04:09.741Z,184.94
2022-08-28T08:05:09.748Z,184.94
2022-08-28T08:06:09.748Z,184.94
2022-08-28T08:07:09.755Z,184.94
2022-08-28T08:08:09.751Z,184.94
2022-08-28T08:09:09.753Z,184.94
2022-08-28T08:10:09.754Z,184.94
2022-08-28T08:11:10.655Z,184.94
2022-08-28T08:12:10.170Z,184.94
2022-08-28T08:13:09.746Z,184.94
2022-08-28T08:14:09.749Z,184.94
2022-08-28T08:15:09.752Z,184.94
2022-08-28T08:16:09.785Z,184.94
2022-08-28T08:17:09.749Z,184.94
2022-08-28T08:18:09.747Z,184.94
2022-08-28T08:19:10.096Z,184.94
2022-08-28T08:20:09.754Z,184.94
2022-08-28T08:21:09.750Z,184.94
2022-08-28T08:22:09.753Z,184.94
2022-08-28T08:23:09.748Z,184.94
2022-08-28T08:24:09.751Z,184.94
2022-08-28T08:25:09.754Z,184.94
2022-08-28T08:26:09.754Z,184.94
2022-08-28T08:27:09.751Z,184.94
2022-08-28T08:28:09.745Z,184.94
2022-08-28T08:29:09.755Z,184.94
2022-08-28T08:30:09.749Z,184.94
2022-08-28T08:31:09.810Z,184.94
2022-08-28T08:32:09.754Z,184.94
2022-08-28T08:33:09.758Z,184.94
2022-08-28T08:34:09.759Z,184.94
2022-08-28T08:35:09.760Z,184.94
2022-08-28T08:36:09.761Z,184.94
2022-08-28T08:37:09.765Z,184.94
2022-08-28T08:38:09.764Z,184.94
2022-08-28T08:39:09.876Z,184.94
2022-08-28T08:40:10.761Z,184.94
2022-08-28T08:41:09.760Z,184.94
2022-08-28T08:42:09.770Z,184.94
2022-08-28T08:43:09.756Z,184.94
2022-08-28T08:44:09.763Z,184.94
2022-08-28T08:45:09.767Z,184.94
2022-08-28T08:46:09.835Z,184.94
2022-08-28T08:47:13.965Z,184.94
2022-08-28T08:48:09.806Z,184.94
2022-08-28T08:49:09.763Z,184.94
2022-08-28T08:50:09.762Z,184.94
2022-08-28T08:51:09.762Z,184.94
2022-08-28T08:52:09.761Z,184.94
2022-08-28T08:53:09.757Z,184.94
2022-08-28T08:54:09.763Z,184.94
2022-08-28T08:55:09.770Z,184.94
2022-08-28T08:56:09.768Z,184.94
2022-08-28T08:57:09.757Z,184.94
2022-08-28T08:58:09.793Z,184.94
2022-08-28T08:59:09.765Z,184.94
2022-08-28T09:00:13.651Z,184.94
2022-08-28T09:01:09.875Z,184.94
2022-08-28T09:02:09.766Z,184.94
2022-08-28T09:03:09.808Z,184.94
2022-08-28T09:04:09.775Z,184.94
2022-08-28T09:05:09.774Z,184.94
2022-08-28T09:06:09.768Z,184.94
2022-08-28T09:07:09.765Z,184.94
2022-08-28T09:08:09.771Z,184.94
2022-08-28T09:09:09.773Z,184.94
2022-08-28T09:10:09.773Z,184.94
2022-08-28T09:11:09.774Z,184.94
2022-08-28T09:12:09.779Z,184.94
2022-08-28T09:13:09.771Z,184.94
2022-08-28T09:14:09.776Z,184.94
2022-08-28T09:15:09.789Z,184.94
2022-08-28T09:16:09.829Z,184.94
2022-08-28T09:17:09.765Z,184.94
2022-08-28T09:18:09.835Z,184.94
2022-08-28T09:19:09.769Z,184.94
2022-08-28T09:20:09.775Z,184.94
2022-08-28T09:21:09.775Z,184.94
2022-08-28T09:22:09.772Z,184.94
2022-08-28T09:23:12.469Z,184.94
2022-08-28T09:24:10.915Z,184.94
2022-08-28T09:25:09.775Z,184.94
2022-08-28T09:26:09.775Z,184.94
2022-08-28T09:27:13.787Z,184.94
2022-08-28T09:28:09.774Z,184.94
2022-08-28T09:29:09.771Z,184.94
2022-08-28T09:30:09.771Z,184.94
2022-08-28T09:31:09.823Z,184.94
2022-08-28T09:32:09.768Z,184.94
2022-08-28T09:33:09.774Z,184.94
2022-08-28T09:34:09.778Z,184.94
2022-08-28T09:35:09.779Z,184.94
2022-08-28T09:36:09.780Z,184.94
2022-08-28T09:37:09.778Z,184.94
2022-08-28T09:38:09.769Z,184.94
2022-08-28T09:39:09.779Z,184.94
2022-08-28T09:40:09.857Z,184.94
2022-08-28T09:41:09.783Z,184.94
2022-08-28T09:42:09.781Z,184.94
2022-08-28T09:43:09.772Z,184.94
2022-08-28T09:44:09.772Z,184.94
2022-08-28T09:45:09.820Z,184.94
2022-08-28T09:46:09.803Z,184.94
2022-08-28T09:47:09.780Z,184.94
2022-08-28T09:48:09.777Z,184.94
2022-08-28T09:49:09.776Z,184.94
2022-08-28T09:50:09.778Z,184.94
2022-08-28T09:51:09.774Z,184.94
2022-08-28T09:52:09.779Z,184.94
2022-08-28T09:53:09.782Z,184.94
2022-08-28T09:54:09.776Z,184.94
2022-08-28T09:55:09.781Z,184.94
2022-08-28T09:56:09.779Z,184.94
2022-08-28T09:57:09.777Z,184.94
2022-08-28T09:58:09.809Z,184.94
2022-08-28T09:59:09.789Z,184.94
2022-08-28T10:00:09.791Z,184.94
2022-08-28T10:01:09.826Z,184.94
2022-08-28T10:02:09.830Z,184.94
2022-08-28T10:03:09.777Z,184.94
2022-08-28T10:04:09.837Z,184.94
2022-08-28T10:05:09.783Z,184.94
2022-08-28T10:06:09.779Z,184.94
2022-08-28T10:07:09.774Z,184.94
2022-08-28T10:08:09.778Z,184.94
2022-08-28T10:09:09.778Z,184.94
2022-08-28T10:10:09.782Z,184.94
2022-08-28T10:11:09.786Z,184.94
2022-08-28T10:12:09.786Z,184.94
2022-08-28T10:13:09.782Z,183.53
2022-08-28T10:14:09.776Z,176.47
2022-08-28T10:15:09.780Z,165.18
2022-08-28T10:16:09.988Z,197.65
2022-08-28T10:17:09.778Z,200.47
2022-08-28T10:18:09.787Z,156.71
2022-08-28T10:19:09.782Z,156.71
2022-08-28T10:20:09.781Z,156.71
2022-08-28T10:21:09.785Z,156.71
2022-08-28T10:22:09.781Z,156.71
2022-08-28T10:23:10.496Z,186.35
2022-08-28T10:24:09.771Z,186.35
2022-08-28T10:25:09.787Z,186.35
2022-08-28T10:26:09.781Z,146.82
2022-08-28T10:27:09.789Z,146.82
2022-08-28T10:28:09.835Z,146.82
2022-08-28T10:29:09.792Z,146.82
2022-08-28T10:30:13.064Z,146.82
2022-08-28T10:31:09.870Z,146.82
2022-08-28T10:32:09.793Z,200.47
2022-08-28T10:33:09.788Z,172.24
2022-08-28T10:34:09.797Z,152.47
2022-08-28T10:35:09.799Z,182.12
2022-08-28T10:36:21.187Z,183.53
2022-08-28T10:37:09.798Z,183.53
2022-08-28T10:38:09.868Z,183.53
2022-08-28T10:39:09.805Z,183.53
2022-08-28T10:40:09.840Z,183.53
2022-08-28T10:41:09.799Z,183.53
2022-08-28T10:42:09.803Z,183.53
2022-08-28T10:43:09.809Z,183.53
2022-08-28T10:44:09.801Z,183.53
2022-08-28T10:45:09.807Z,183.53
2022-08-28T10:46:09.830Z,183.53
2022-08-28T10:47:09.808Z,183.53
2022-08-28T10:48:09.883Z,183.53
2022-08-28T10:49:09.806Z,196.24
2022-08-28T10:50:09.816Z,196.24
2022-08-28T10:51:09.810Z,159.53
2022-08-28T10:52:09.817Z,192
2022-08-28T10:53:09.807Z,206.12
2022-08-28T10:54:09.818Z,197.65
2022-08-28T10:55:09.818Z,241.41
2022-08-28T10:56:09.821Z,203.29
2022-08-28T10:57:09.824Z,235.76
2022-08-28T10:58:24.670Z,225.88
2022-08-28T10:59:09.826Z,179.29
2022-08-28T11:00:09.830Z,179.29
2022-08-28T11:01:09.899Z,179.29
2022-08-28T11:02:09.881Z,179.29
2022-08-28T11:03:22.417Z,179.29
2022-08-28T11:04:09.825Z,131.29
2022-08-28T11:05:09.835Z,129.88
2022-08-28T11:06:09.829Z,142.59
2022-08-28T11:07:09.829Z,108.71
2022-08-28T11:08:09.868Z,108.71
2022-08-28T11:09:09.831Z,108.71
2022-08-28T11:10:09.830Z,108.71
2022-08-28T11:11:09.835Z,127.06
2022-08-28T11:12:09.832Z,127.06
2022-08-28T11:13:09.901Z,127.06
2022-08-28T11:14:09.847Z,127.06
2022-08-28T11:15:09.847Z,127.06
2022-08-28T11:16:09.841Z,127.06
2022-08-28T11:17:09.859Z,168
2022-08-28T11:18:09.844Z,180.71
2022-08-28T11:19:09.842Z,172.24
2022-08-28T11:20:09.848Z,172.24
2022-08-28T11:21:09.856Z,172.24
2022-08-28T11:22:09.852Z,186.35
2022-08-28T11:23:09.870Z,172.24
2022-08-28T11:24:09.855Z,159.53
2022-08-28T11:25:09.991Z,159.53
2022-08-28T11:26:09.859Z,172.24
2022-08-28T11:27:09.859Z,186.35
2022-08-28T11:28:09.849Z,187.76
2022-08-28T11:29:09.854Z,187.76
2022-08-28T11:30:09.867Z,187.76
2022-08-28T11:31:09.932Z,232.94
2022-08-28T11:32:09.862Z,242.82
2022-08-28T11:33:09.943Z,216
2022-08-28T11:34:09.855Z,192
2022-08-28T11:35:09.868Z,173.65
2022-08-28T11:36:09.863Z,211.76
2022-08-28T11:37:09.864Z,234.35
2022-08-28T11:38:09.861Z,230.12
2022-08-28T11:39:09.864Z,200.47
2022-08-28T11:40:09.901Z,230.12
2022-08-28T11:41:09.868Z,244.24
2022-08-28T11:42:09.868Z,221.65
2022-08-28T11:43:09.857Z,242.82
2022-08-28T11:44:09.907Z,225.88
2022-08-28T11:45:09.866Z,225.88
2022-08-28T11:46:09.890Z,244.24
2022-08-28T11:47:09.871Z,280.94
2022-08-28T11:48:09.867Z,256.94
2022-08-28T11:49:09.874Z,252.71
2022-08-28T11:50:09.872Z,241.41
2022-08-28T11:51:09.870Z,235.76
2022-08-28T11:52:09.882Z,251.29
2022-08-28T11:53:09.924Z,251.29
2022-08-28T11:54:09.884Z,259.76
2022-08-28T11:55:09.876Z,245.65
2022-08-28T11:56:09.876Z,244.24
2022-08-28T11:57:09.880Z,221.65
2022-08-28T11:59:10.013Z,268.24
2022-08-28T12:00:09.887Z,265.41
2022-08-28T12:01:09.888Z,216
2022-08-28T12:02:09.908Z,216
2022-08-28T12:03:09.989Z,216
2022-08-28T12:04:09.962Z,216
2022-08-28T12:05:09.892Z,216
2022-08-28T12:06:09.885Z,163.76
2022-08-28T12:07:09.891Z,184.94
2022-08-28T12:08:09.893Z,136.94
2022-08-28T12:09:09.896Z,245.65
2022-08-28T12:10:09.889Z,225.88
2022-08-28T12:11:09.893Z,327.53
2022-08-28T12:12:09.894Z,237.18
2022-08-28T12:13:09.973Z,307.76
2022-08-28T12:14:09.897Z,175.06
2022-08-28T12:15:09.896Z,217.41
2022-08-28T12:16:09.942Z,203.29
2022-08-28T12:17:09.900Z,203.29
2022-08-28T12:18:09.898Z,203.29
2022-08-28T12:19:09.890Z,203.29
2022-08-28T12:20:09.890Z,200.47
2022-08-28T12:21:09.900Z,199.06
2022-08-28T12:22:09.892Z,197.65
2022-08-28T12:23:09.901Z,247.06
2022-08-28T12:24:10.083Z,218.82
2022-08-28T12:25:09.898Z,207.53
2022-08-28T12:26:09.907Z,182.12
2022-08-28T12:27:09.904Z,184.94
2022-08-28T12:28:12.937Z,173.65
2022-08-28T12:29:09.910Z,184.94
2022-08-28T12:30:09.911Z,175.06